sensor_id;sensor_type;location;lat;lon;timestamp;P1;durP1;ratioP1;P2;durP2;ratioP2
31537;SDS011;18147;51.952;6.146;2024-01-27T00:00:22;33.03;;;7.57;;
31537;SDS011;18147;51.952;6.146;2024-01-27T00:02:48;28.67;;;7.75;;
31537;SDS011;18147;51.952;6.146;2024-01-27T00:05:13;40.33;;;8.45;;
31537;SDS011;18147;51.952;6.146;2024-01-27T00:07:39;33.20;;;7.30;;
31537;SDS011;18147;51.952;6.146;2024-01-27T00:10:05;33.42;;;7.93;;
31537;SDS011;18147;51.952;6.146;2024-01-27T00:12:31;20.92;;;6.55;;
31537;SDS011;18147;51.952;6.146;2024-01-27T00:14:57;29.48;;;7.72;;
31537;SDS011;18147;51.952;6.146;2024-01-27T00:17:23;25.35;;;7.65;;
31537;SDS011;18147;51.952;6.146;2024-01-27T00:19:50;34.05;;;8.00;;
31537;SDS011;18147;51.952;6.146;2024-01-27T00:22:16;30.45;;;8.88;;
31537;SDS011;18147;51.952;6.146;2024-01-27T00:24:42;33.20;;;8.07;;
31537;SDS011;18147;51.952;6.146;2024-01-27T00:27:08;38.78;;;7.35;;
31537;SDS011;18147;51.952;6.146;2024-01-27T00:29:34;27.67;;;7.35;;
31537;SDS011;18147;51.952;6.146;2024-01-27T00:31:59;23.00;;;7.38;;
31537;SDS011;18147;51.952;6.146;2024-01-27T00:34:25;22.50;;;7.65;;
31537;SDS011;18147;51.952;6.146;2024-01-27T00:36:51;39.15;;;7.72;;
31537;SDS011;18147;51.952;6.146;2024-01-27T00:39:17;32.72;;;7.85;;
31537;SDS011;18147;51.952;6.146;2024-01-27T00:41:43;31.15;;;6.97;;
31537;SDS011;18147;51.952;6.146;2024-01-27T00:44:09;38.13;;;7.68;;
31537;SDS011;18147;51.952;6.146;2024-01-27T00:46:36;29.52;;;6.75;;
31537;SDS011;18147;51.952;6.146;2024-01-27T00:49:04;40.58;;;8.25;;
31537;SDS011;18147;51.952;6.146;2024-01-27T00:51:30;28.48;;;7.90;;
31537;SDS011;18147;51.952;6.146;2024-01-27T00:53:55;32.45;;;7.40;;
31537;SDS011;18147;51.952;6.146;2024-01-27T00:56:21;29.20;;;8.70;;
31537;SDS011;18147;51.952;6.146;2024-01-27T00:58:46;34.25;;;7.55;;
31537;SDS011;18147;51.952;6.146;2024-01-27T01:01:12;30.42;;;7.95;;
31537;SDS011;18147;51.952;6.146;2024-01-27T01:03:37;40.83;;;8.93;;
31537;SDS011;18147;51.952;6.146;2024-01-27T01:06:03;34.75;;;8.18;;
31537;SDS011;18147;51.952;6.146;2024-01-27T01:08:28;39.42;;;7.55;;
31537;SDS011;18147;51.952;6.146;2024-01-27T01:10:54;37.75;;;8.38;;
31537;SDS011;18147;51.952;6.146;2024-01-27T01:13:19;29.35;;;7.32;;
31537;SDS011;18147;51.952;6.146;2024-01-27T01:15:45;26.38;;;7.22;;
31537;SDS011;18147;51.952;6.146;2024-01-27T01:18:10;31.42;;;7.35;;
31537;SDS011;18147;51.952;6.146;2024-01-27T01:20:36;36.25;;;7.35;;
31537;SDS011;18147;51.952;6.146;2024-01-27T01:23:01;27.50;;;6.30;;
31537;SDS011;18147;51.952;6.146;2024-01-27T01:25:27;28.67;;;7.28;;
31537;SDS011;18147;51.952;6.146;2024-01-27T01:27:53;45.35;;;8.25;;
31537;SDS011;18147;51.952;6.146;2024-01-27T01:30:18;29.45;;;7.30;;
31537;SDS011;18147;51.952;6.146;2024-01-27T01:32:44;40.70;;;8.10;;
31537;SDS011;18147;51.952;6.146;2024-01-27T01:35:10;44.75;;;8.05;;
31537;SDS011;18147;51.952;6.146;2024-01-27T01:37:36;36.45;;;8.20;;
31537;SDS011;18147;51.952;6.146;2024-01-27T01:40:01;37.35;;;7.85;;
31537;SDS011;18147;51.952;6.146;2024-01-27T01:42:28;51.13;;;8.63;;
31537;SDS011;18147;51.952;6.146;2024-01-27T01:44:54;30.08;;;7.13;;
31537;SDS011;18147;51.952;6.146;2024-01-27T01:47:20;31.17;;;7.20;;
31537;SDS011;18147;51.952;6.146;2024-01-27T01:49:47;24.65;;;7.97;;
31537;SDS011;18147;51.952;6.146;2024-01-27T01:52:14;48.20;;;9.10;;
31537;SDS011;18147;51.952;6.146;2024-01-27T01:54:46;34.40;;;7.43;;
31537;SDS011;18147;51.952;6.146;2024-01-27T01:57:13;29.40;;;7.60;;
31537;SDS011;18147;51.952;6.146;2024-01-27T01:59:39;29.13;;;8.43;;
31537;SDS011;18147;51.952;6.146;2024-01-27T02:02:06;36.00;;;7.63;;
31537;SDS011;18147;51.952;6.146;2024-01-27T02:04:42;24.10;;;8.25;;
31537;SDS011;18147;51.952;6.146;2024-01-27T02:07:08;35.83;;;8.90;;
31537;SDS011;18147;51.952;6.146;2024-01-27T02:09:34;31.17;;;7.32;;
31537;SDS011;18147;51.952;6.146;2024-01-27T02:12:00;25.90;;;7.60;;
31537;SDS011;18147;51.952;6.146;2024-01-27T02:14:26;37.95;;;9.10;;
31537;SDS011;18147;51.952;6.146;2024-01-27T02:16:53;32.22;;;7.75;;
31537;SDS011;18147;51.952;6.146;2024-01-27T02:19:19;29.83;;;7.20;;
31537;SDS011;18147;51.952;6.146;2024-01-27T02:21:44;31.67;;;7.65;;
31537;SDS011;18147;51.952;6.146;2024-01-27T02:24:09;29.50;;;7.35;;
31537;SDS011;18147;51.952;6.146;2024-01-27T02:26:35;29.80;;;6.93;;
31537;SDS011;18147;51.952;6.146;2024-01-27T02:29:01;34.42;;;8.52;;
31537;SDS011;18147;51.952;6.146;2024-01-27T02:31:26;36.50;;;7.47;;
31537;SDS011;18147;51.952;6.146;2024-01-27T02:33:52;27.88;;;8.32;;
31537;SDS011;18147;51.952;6.146;2024-01-27T02:36:17;27.02;;;7.00;;
31537;SDS011;18147;51.952;6.146;2024-01-27T02:38:43;29.80;;;8.02;;
31537;SDS011;18147;51.952;6.146;2024-01-27T02:41:11;26.55;;;7.57;;
31537;SDS011;18147;51.952;6.146;2024-01-27T02:43:37;31.55;;;7.45;;
31537;SDS011;18147;51.952;6.146;2024-01-27T02:46:05;25.40;;;8.05;;
31537;SDS011;18147;51.952;6.146;2024-01-27T02:48:33;25.83;;;6.88;;
31537;SDS011;18147;51.952;6.146;2024-01-27T02:51:01;28.30;;;8.00;;
31537;SDS011;18147;51.952;6.146;2024-01-27T02:53:27;23.70;;;7.55;;
31537;SDS011;18147;51.952;6.146;2024-01-27T02:55:52;27.55;;;7.88;;
31537;SDS011;18147;51.952;6.146;2024-01-27T02:58:18;39.17;;;7.60;;
31537;SDS011;18147;51.952;6.146;2024-01-27T03:00:43;30.83;;;8.27;;
31537;SDS011;18147;51.952;6.146;2024-01-27T03:03:09;34.97;;;8.40;;
31537;SDS011;18147;51.952;6.146;2024-01-27T03:05:35;29.13;;;7.75;;
31537;SDS011;18147;51.952;6.146;2024-01-27T03:08:00;22.92;;;7.35;;
31537;SDS011;18147;51.952;6.146;2024-01-27T03:10:26;36.67;;;9.00;;
31537;SDS011;18147;51.952;6.146;2024-01-27T03:12:52;29.20;;;7.60;;
31537;SDS011;18147;51.952;6.146;2024-01-27T03:15:17;32.50;;;8.73;;
31537;SDS011;18147;51.952;6.146;2024-01-27T03:17:43;27.90;;;7.85;;
31537;SDS011;18147;51.952;6.146;2024-01-27T03:20:09;30.05;;;8.70;;
31537;SDS011;18147;51.952;6.146;2024-01-27T03:22:35;36.40;;;8.35;;
31537;SDS011;18147;51.952;6.146;2024-01-27T03:25:00;25.05;;;8.73;;
31537;SDS011;18147;51.952;6.146;2024-01-27T03:27:26;34.75;;;8.95;;
31537;SDS011;18147;51.952;6.146;2024-01-27T03:29:51;37.08;;;8.13;;
31537;SDS011;18147;51.952;6.146;2024-01-27T03:32:16;38.13;;;9.27;;
31537;SDS011;18147;51.952;6.146;2024-01-27T03:34:45;34.35;;;8.60;;
31537;SDS011;18147;51.952;6.146;2024-01-27T03:37:11;26.60;;;8.75;;
31537;SDS011;18147;51.952;6.146;2024-01-27T03:39:37;29.58;;;8.80;;
31537;SDS011;18147;51.952;6.146;2024-01-27T03:42:02;34.15;;;9.60;;
31537;SDS011;18147;51.952;6.146;2024-01-27T03:44:28;37.90;;;9.88;;
31537;SDS011;18147;51.952;6.146;2024-01-27T03:46:53;33.35;;;9.10;;
31537;SDS011;18147;51.952;6.146;2024-01-27T03:49:19;32.70;;;8.50;;
31537;SDS011;18147;51.952;6.146;2024-01-27T03:51:44;35.75;;;10.52;;
31537;SDS011;18147;51.952;6.146;2024-01-27T03:54:10;31.50;;;9.70;;
31537;SDS011;18147;51.952;6.146;2024-01-27T03:56:35;39.72;;;10.20;;
31537;SDS011;18147;51.952;6.146;2024-01-27T03:59:01;29.70;;;9.25;;
31537;SDS011;18147;51.952;6.146;2024-01-27T04:01:28;32.53;;;9.20;;
31537;SDS011;18147;51.952;6.146;2024-01-27T04:03:54;27.73;;;10.18;;
31537;SDS011;18147;51.952;6.146;2024-01-27T04:06:19;30.30;;;10.43;;
31537;SDS011;18147;51.952;6.146;2024-01-27T04:08:45;34.60;;;11.30;;
31537;SDS011;18147;51.952;6.146;2024-01-27T04:11:18;40.95;;;13.07;;
31537;SDS011;18147;51.952;6.146;2024-01-27T04:13:48;35.47;;;12.38;;
31537;SDS011;18147;51.952;6.146;2024-01-27T04:16:18;39.03;;;11.80;;
31537;SDS011;18147;51.952;6.146;2024-01-27T04:18:43;36.95;;;13.00;;
31537;SDS011;18147;51.952;6.146;2024-01-27T04:21:09;36.30;;;12.60;;
31537;SDS011;18147;51.952;6.146;2024-01-27T04:23:34;32.25;;;12.07;;
31537;SDS011;18147;51.952;6.146;2024-01-27T04:26:00;49.85;;;14.55;;
31537;SDS011;18147;51.952;6.146;2024-01-27T04:28:25;32.80;;;15.85;;
31537;SDS011;18147;51.952;6.146;2024-01-27T04:30:50;47.42;;;14.90;;
31537;SDS011;18147;51.952;6.146;2024-01-27T04:33:17;38.78;;;14.70;;
31537;SDS011;18147;51.952;6.146;2024-01-27T04:35:42;34.65;;;14.30;;
31537;SDS011;18147;51.952;6.146;2024-01-27T04:38:08;35.60;;;14.30;;
31537;SDS011;18147;51.952;6.146;2024-01-27T04:40:34;41.78;;;16.00;;
31537;SDS011;18147;51.952;6.146;2024-01-27T04:43:00;39.00;;;14.93;;
31537;SDS011;18147;51.952;6.146;2024-01-27T04:45:26;34.05;;;14.80;;
31537;SDS011;18147;51.952;6.146;2024-01-27T04:47:52;38.40;;;16.20;;
31537;SDS011;18147;51.952;6.146;2024-01-27T04:50:19;43.13;;;15.82;;
31537;SDS011;18147;51.952;6.146;2024-01-27T04:52:45;41.75;;;15.88;;
31537;SDS011;18147;51.952;6.146;2024-01-27T04:55:11;48.53;;;17.50;;
31537;SDS011;18147;51.952;6.146;2024-01-27T04:57:36;42.65;;;17.27;;
31537;SDS011;18147;51.952;6.146;2024-01-27T05:00:02;40.42;;;17.05;;
31537;SDS011;18147;51.952;6.146;2024-01-27T05:02:29;48.35;;;17.25;;
31537;SDS011;18147;51.952;6.146;2024-01-27T05:04:54;48.17;;;16.13;;
31537;SDS011;18147;51.952;6.146;2024-01-27T05:07:20;40.65;;;16.17;;
31537;SDS011;18147;51.952;6.146;2024-01-27T05:09:46;38.10;;;17.63;;
31537;SDS011;18147;51.952;6.146;2024-01-27T05:12:11;44.47;;;17.55;;
31537;SDS011;18147;51.952;6.146;2024-01-27T05:14:37;39.38;;;17.63;;
31537;SDS011;18147;51.952;6.146;2024-01-27T05:17:02;48.00;;;19.67;;
31537;SDS011;18147;51.952;6.146;2024-01-27T05:19:28;40.95;;;18.33;;
31537;SDS011;18147;51.952;6.146;2024-01-27T05:21:53;45.45;;;18.77;;
31537;SDS011;18147;51.952;6.146;2024-01-27T05:24:19;48.63;;;21.23;;
31537;SDS011;18147;51.952;6.146;2024-01-27T05:26:44;45.78;;;19.88;;
31537;SDS011;18147;51.952;6.146;2024-01-27T05:29:10;40.15;;;18.85;;
31537;SDS011;18147;51.952;6.146;2024-01-27T05:31:35;41.65;;;18.92;;
31537;SDS011;18147;51.952;6.146;2024-01-27T05:34:01;51.05;;;19.98;;
31537;SDS011;18147;51.952;6.146;2024-01-27T05:36:26;42.60;;;19.35;;
31537;SDS011;18147;51.952;6.146;2024-01-27T05:38:52;42.17;;;19.42;;
31537;SDS011;18147;51.952;6.146;2024-01-27T05:41:17;46.42;;;19.80;;
31537;SDS011;18147;51.952;6.146;2024-01-27T05:43:43;57.88;;;22.75;;
31537;SDS011;18147;51.952;6.146;2024-01-27T05:46:09;59.42;;;26.60;;
31537;SDS011;18147;51.952;6.146;2024-01-27T05:48:35;53.10;;;22.05;;
31537;SDS011;18147;51.952;6.146;2024-01-27T05:51:00;51.33;;;21.45;;
31537;SDS011;18147;51.952;6.146;2024-01-27T05:53:26;48.90;;;21.40;;
31537;SDS011;18147;51.952;6.146;2024-01-27T05:55:52;50.30;;;19.90;;
31537;SDS011;18147;51.952;6.146;2024-01-27T05:58:19;61.33;;;23.05;;
31537;SDS011;18147;51.952;6.146;2024-01-27T06:00:48;40.78;;;19.85;;
31537;SDS011;18147;51.952;6.146;2024-01-27T06:03:13;56.80;;;21.80;;
31537;SDS011;18147;51.952;6.146;2024-01-27T06:05:40;50.83;;;20.85;;
31537;SDS011;18147;51.952;6.146;2024-01-27T06:08:07;50.17;;;20.50;;
31537;SDS011;18147;51.952;6.146;2024-01-27T06:10:33;52.38;;;23.75;;
31537;SDS011;18147;51.952;6.146;2024-01-27T06:12:58;69.20;;;23.73;;
31537;SDS011;18147;51.952;6.146;2024-01-27T06:15:24;57.22;;;23.92;;
31537;SDS011;18147;51.952;6.146;2024-01-27T06:17:50;49.22;;;22.98;;
31537;SDS011;18147;51.952;6.146;2024-01-27T06:20:16;63.42;;;24.85;;
31537;SDS011;18147;51.952;6.146;2024-01-27T06:22:43;55.67;;;24.35;;
31537;SDS011;18147;51.952;6.146;2024-01-27T06:25:08;48.42;;;21.67;;
31537;SDS011;18147;51.952;6.146;2024-01-27T06:27:34;59.60;;;23.77;;
31537;SDS011;18147;51.952;6.146;2024-01-27T06:29:59;63.70;;;24.58;;
31537;SDS011;18147;51.952;6.146;2024-01-27T06:32:25;50.00;;;24.90;;
31537;SDS011;18147;51.952;6.146;2024-01-27T06:34:50;59.08;;;28.50;;
31537;SDS011;18147;51.952;6.146;2024-01-27T06:37:16;68.07;;;30.58;;
31537;SDS011;18147;51.952;6.146;2024-01-27T06:39:41;55.42;;;25.60;;
31537;SDS011;18147;51.952;6.146;2024-01-27T06:42:07;63.42;;;27.08;;
31537;SDS011;18147;51.952;6.146;2024-01-27T06:44:32;64.70;;;26.70;;
31537;SDS011;18147;51.952;6.146;2024-01-27T06:46:57;57.20;;;26.98;;
31537;SDS011;18147;51.952;6.146;2024-01-27T06:49:23;70.50;;;32.03;;
31537;SDS011;18147;51.952;6.146;2024-01-27T06:51:48;55.22;;;29.83;;
31537;SDS011;18147;51.952;6.146;2024-01-27T06:54:14;56.33;;;28.70;;
31537;SDS011;18147;51.952;6.146;2024-01-27T06:56:39;59.83;;;28.98;;
31537;SDS011;18147;51.952;6.146;2024-01-27T06:59:05;63.33;;;30.23;;
31537;SDS011;18147;51.952;6.146;2024-01-27T07:01:30;60.03;;;27.42;;
31537;SDS011;18147;51.952;6.146;2024-01-27T07:03:56;54.88;;;27.00;;
31537;SDS011;18147;51.952;6.146;2024-01-27T07:06:21;60.72;;;26.83;;
31537;SDS011;18147;51.952;6.146;2024-01-27T07:08:47;61.35;;;27.30;;
31537;SDS011;18147;51.952;6.146;2024-01-27T07:11:12;60.70;;;29.40;;
31537;SDS011;18147;51.952;6.146;2024-01-27T07:13:38;55.35;;;27.95;;
31537;SDS011;18147;51.952;6.146;2024-01-27T07:16:04;57.75;;;28.35;;
31537;SDS011;18147;51.952;6.146;2024-01-27T07:18:30;53.88;;;27.80;;
31537;SDS011;18147;51.952;6.146;2024-01-27T07:20:55;69.45;;;29.33;;
31537;SDS011;18147;51.952;6.146;2024-01-27T07:23:24;55.88;;;26.27;;
31537;SDS011;18147;51.952;6.146;2024-01-27T07:25:49;58.13;;;27.02;;
31537;SDS011;18147;51.952;6.146;2024-01-27T07:28:15;57.22;;;27.27;;
31537;SDS011;18147;51.952;6.146;2024-01-27T07:30:43;62.00;;;27.65;;
31537;SDS011;18147;51.952;6.146;2024-01-27T07:33:09;64.72;;;31.50;;
31537;SDS011;18147;51.952;6.146;2024-01-27T07:35:34;73.75;;;31.85;;
31537;SDS011;18147;51.952;6.146;2024-01-27T07:38:00;58.00;;;26.90;;
31537;SDS011;18147;51.952;6.146;2024-01-27T07:40:25;59.65;;;27.77;;
31537;SDS011;18147;51.952;6.146;2024-01-27T07:42:51;61.53;;;29.67;;
31537;SDS011;18147;51.952;6.146;2024-01-27T07:45:16;58.25;;;29.30;;
31537;SDS011;18147;51.952;6.146;2024-01-27T07:47:42;59.40;;;29.58;;
31537;SDS011;18147;51.952;6.146;2024-01-27T07:50:07;69.45;;;29.85;;
31537;SDS011;18147;51.952;6.146;2024-01-27T07:52:34;61.53;;;28.15;;
31537;SDS011;18147;51.952;6.146;2024-01-27T07:55:00;63.70;;;30.33;;
31537;SDS011;18147;51.952;6.146;2024-01-27T07:57:27;63.55;;;31.88;;
31537;SDS011;18147;51.952;6.146;2024-01-27T07:59:53;59.33;;;28.98;;
31537;SDS011;18147;51.952;6.146;2024-01-27T08:02:18;65.45;;;29.75;;
31537;SDS011;18147;51.952;6.146;2024-01-27T08:04:44;81.97;;;33.13;;
31537;SDS011;18147;51.952;6.146;2024-01-27T08:07:09;63.85;;;32.78;;
31537;SDS011;18147;51.952;6.146;2024-01-27T08:09:35;76.03;;;36.15;;
31537;SDS011;18147;51.952;6.146;2024-01-27T08:12:01;73.63;;;36.03;;
31537;SDS011;18147;51.952;6.146;2024-01-27T08:14:27;76.68;;;34.63;;
31537;SDS011;18147;51.952;6.146;2024-01-27T08:16:55;76.30;;;35.90;;
31537;SDS011;18147;51.952;6.146;2024-01-27T08:19:21;81.65;;;37.72;;
31537;SDS011;18147;51.952;6.146;2024-01-27T08:21:48;80.80;;;37.67;;
31537;SDS011;18147;51.952;6.146;2024-01-27T08:24:14;84.72;;;40.65;;
31537;SDS011;18147;51.952;6.146;2024-01-27T08:26:39;79.85;;;38.15;;
31537;SDS011;18147;51.952;6.146;2024-01-27T08:29:07;70.18;;;39.33;;
31537;SDS011;18147;51.952;6.146;2024-01-27T08:31:33;76.88;;;38.60;;
31537;SDS011;18147;51.952;6.146;2024-01-27T08:33:59;84.68;;;42.30;;
31537;SDS011;18147;51.952;6.146;2024-01-27T08:36:24;74.05;;;41.50;;
31537;SDS011;18147;51.952;6.146;2024-01-27T08:38:50;94.38;;;42.17;;
31537;SDS011;18147;51.952;6.146;2024-01-27T08:41:15;71.28;;;40.03;;
31537;SDS011;18147;51.952;6.146;2024-01-27T08:43:41;79.05;;;40.83;;
31537;SDS011;18147;51.952;6.146;2024-01-27T08:46:06;81.97;;;41.40;;
31537;SDS011;18147;51.952;6.146;2024-01-27T08:48:36;83.38;;;43.25;;
31537;SDS011;18147;51.952;6.146;2024-01-27T08:51:02;83.72;;;43.15;;
31537;SDS011;18147;51.952;6.146;2024-01-27T08:53:27;79.05;;;40.28;;
31537;SDS011;18147;51.952;6.146;2024-01-27T08:55:53;76.68;;;41.35;;
31537;SDS011;18147;51.952;6.146;2024-01-27T08:58:18;73.75;;;38.92;;
31537;SDS011;18147;51.952;6.146;2024-01-27T09:00:44;80.03;;;41.05;;
31537;SDS011;18147;51.952;6.146;2024-01-27T09:03:09;89.85;;;40.50;;
31537;SDS011;18147;51.952;6.146;2024-01-27T09:05:35;76.70;;;40.67;;
31537;SDS011;18147;51.952;6.146;2024-01-27T09:08:00;73.43;;;41.17;;
31537;SDS011;18147;51.952;6.146;2024-01-27T09:10:26;77.57;;;39.30;;
31537;SDS011;18147;51.952;6.146;2024-01-27T09:12:51;88.20;;;39.50;;
31537;SDS011;18147;51.952;6.146;2024-01-27T09:15:17;73.53;;;37.10;;
31537;SDS011;18147;51.952;6.146;2024-01-27T09:17:42;77.18;;;36.17;;
31537;SDS011;18147;51.952;6.146;2024-01-27T09:20:08;71.82;;;37.90;;
31537;SDS011;18147;51.952;6.146;2024-01-27T09:22:34;78.15;;;39.08;;
31537;SDS011;18147;51.952;6.146;2024-01-27T09:24:59;74.55;;;37.60;;
31537;SDS011;18147;51.952;6.146;2024-01-27T09:27:25;69.82;;;37.10;;
31537;SDS011;18147;51.952;6.146;2024-01-27T09:29:50;67.70;;;35.78;;
31537;SDS011;18147;51.952;6.146;2024-01-27T09:32:16;81.70;;;38.33;;
31537;SDS011;18147;51.952;6.146;2024-01-27T09:34:41;74.07;;;38.65;;
31537;SDS011;18147;51.952;6.146;2024-01-27T09:37:07;69.57;;;37.17;;
31537;SDS011;18147;51.952;6.146;2024-01-27T09:39:32;71.72;;;35.80;;
31537;SDS011;18147;51.952;6.146;2024-01-27T09:41:58;54.92;;;34.72;;
31537;SDS011;18147;51.952;6.146;2024-01-27T09:44:29;67.25;;;34.25;;
31537;SDS011;18147;51.952;6.146;2024-01-27T09:46:56;67.20;;;34.20;;
31537;SDS011;18147;51.952;6.146;2024-01-27T09:49:22;64.75;;;34.30;;
31537;SDS011;18147;51.952;6.146;2024-01-27T09:51:50;66.43;;;34.72;;
31537;SDS011;18147;51.952;6.146;2024-01-27T09:54:15;68.18;;;34.00;;
31537;SDS011;18147;51.952;6.146;2024-01-27T09:56:41;78.38;;;37.83;;
31537;SDS011;18147;51.952;6.146;2024-01-27T09:59:10;71.22;;;35.65;;
31537;SDS011;18147;51.952;6.146;2024-01-27T10:01:39;59.28;;;33.78;;
31537;SDS011;18147;51.952;6.146;2024-01-27T10:04:06;59.83;;;33.33;;
31537;SDS011;18147;51.952;6.146;2024-01-27T10:06:34;64.50;;;34.22;;
31537;SDS011;18147;51.952;6.146;2024-01-27T10:08:59;60.08;;;31.55;;
31537;SDS011;18147;51.952;6.146;2024-01-27T10:11:25;62.83;;;33.33;;
31537;SDS011;18147;51.952;6.146;2024-01-27T10:13:53;64.13;;;31.40;;
31537;SDS011;18147;51.952;6.146;2024-01-27T10:16:24;69.18;;;31.92;;
31537;SDS011;18147;51.952;6.146;2024-01-27T10:19:00;54.60;;;27.90;;
31537;SDS011;18147;51.952;6.146;2024-01-27T10:21:27;53.80;;;26.90;;
31537;SDS011;18147;51.952;6.146;2024-01-27T10:23:52;56.30;;;27.35;;
31537;SDS011;18147;51.952;6.146;2024-01-27T10:26:18;52.60;;;27.83;;
31537;SDS011;18147;51.952;6.146;2024-01-27T10:28:52;59.35;;;26.92;;
31537;SDS011;18147;51.952;6.146;2024-01-27T10:31:18;50.00;;;25.60;;
31537;SDS011;18147;51.952;6.146;2024-01-27T10:33:52;45.30;;;25.25;;
31537;SDS011;18147;51.952;6.146;2024-01-27T10:36:18;47.03;;;23.50;;
31537;SDS011;18147;51.952;6.146;2024-01-27T10:38:44;55.53;;;25.40;;
31537;SDS011;18147;51.952;6.146;2024-01-27T10:41:10;51.55;;;25.33;;
31537;SDS011;18147;51.952;6.146;2024-01-27T10:43:36;49.33;;;25.35;;
31537;SDS011;18147;51.952;6.146;2024-01-27T10:46:06;45.75;;;23.80;;
31537;SDS011;18147;51.952;6.146;2024-01-27T10:48:36;44.38;;;22.58;;
31537;SDS011;18147;51.952;6.146;2024-01-27T10:51:08;41.83;;;22.27;;
31537;SDS011;18147;51.952;6.146;2024-01-27T10:53:37;44.78;;;22.38;;
31537;SDS011;18147;51.952;6.146;2024-01-27T10:56:04;46.50;;;20.80;;
31537;SDS011;18147;51.952;6.146;2024-01-27T10:58:34;47.20;;;21.48;;
31537;SDS011;18147;51.952;6.146;2024-01-27T11:01:10;45.78;;;22.52;;
31537;SDS011;18147;51.952;6.146;2024-01-27T11:03:39;50.63;;;20.30;;
31537;SDS011;18147;51.952;6.146;2024-01-27T11:06:06;48.00;;;21.00;;
31537;SDS011;18147;51.952;6.146;2024-01-27T11:08:33;46.92;;;21.77;;
31537;SDS011;18147;51.952;6.146;2024-01-27T11:10:59;42.30;;;22.88;;
31537;SDS011;18147;51.952;6.146;2024-01-27T11:13:30;42.20;;;22.90;;
31537;SDS011;18147;51.952;6.146;2024-01-27T11:15:57;45.75;;;21.50;;
31537;SDS011;18147;51.952;6.146;2024-01-27T11:18:26;38.80;;;21.10;;
31537;SDS011;18147;51.952;6.146;2024-01-27T11:20:53;46.75;;;17.23;;
31537;SDS011;18147;51.952;6.146;2024-01-27T11:23:19;49.88;;;18.77;;
31537;SDS011;18147;51.952;6.146;2024-01-27T11:25:44;44.65;;;17.15;;
31537;SDS011;18147;51.952;6.146;2024-01-27T11:28:14;35.08;;;17.40;;
31537;SDS011;18147;51.952;6.146;2024-01-27T11:30:47;43.90;;;16.92;;
31537;SDS011;18147;51.952;6.146;2024-01-27T11:33:13;35.95;;;14.75;;
31537;SDS011;18147;51.952;6.146;2024-01-27T11:35:38;37.50;;;15.10;;
31537;SDS011;18147;51.952;6.146;2024-01-27T11:38:04;36.80;;;15.45;;
31537;SDS011;18147;51.952;6.146;2024-01-27T11:40:30;28.17;;;13.15;;
31537;SDS011;18147;51.952;6.146;2024-01-27T11:43:01;31.77;;;13.50;;
31537;SDS011;18147;51.952;6.146;2024-01-27T11:45:27;27.60;;;13.18;;
31537;SDS011;18147;51.952;6.146;2024-01-27T11:47:54;40.00;;;14.82;;
31537;SDS011;18147;51.952;6.146;2024-01-27T11:50:20;34.55;;;13.70;;
31537;SDS011;18147;51.952;6.146;2024-01-27T11:52:46;29.58;;;13.10;;
31537;SDS011;18147;51.952;6.146;2024-01-27T11:55:12;33.03;;;12.13;;
31537;SDS011;18147;51.952;6.146;2024-01-27T11:57:40;29.60;;;12.23;;
31537;SDS011;18147;51.952;6.146;2024-01-27T12:00:06;30.58;;;11.52;;
31537;SDS011;18147;51.952;6.146;2024-01-27T12:02:33;34.97;;;12.60;;
31537;SDS011;18147;51.952;6.146;2024-01-27T12:04:58;30.33;;;12.10;;
31537;SDS011;18147;51.952;6.146;2024-01-27T12:07:25;28.58;;;11.48;;
31537;SDS011;18147;51.952;6.146;2024-01-27T12:09:51;28.23;;;11.48;;
31537;SDS011;18147;51.952;6.146;2024-01-27T12:12:17;24.63;;;10.90;;
31537;SDS011;18147;51.952;6.146;2024-01-27T12:14:47;33.03;;;10.95;;
31537;SDS011;18147;51.952;6.146;2024-01-27T12:17:14;33.67;;;11.52;;
31537;SDS011;18147;51.952;6.146;2024-01-27T12:19:50;27.65;;;11.35;;
31537;SDS011;18147;51.952;6.146;2024-01-27T12:22:25;30.17;;;11.27;;
31537;SDS011;18147;51.952;6.146;2024-01-27T12:24:52;30.73;;;11.10;;
31537;SDS011;18147;51.952;6.146;2024-01-27T12:27:22;26.98;;;10.20;;
31537;SDS011;18147;51.952;6.146;2024-01-27T12:29:48;28.48;;;9.55;;
31537;SDS011;18147;51.952;6.146;2024-01-27T12:32:17;28.23;;;9.60;;
31537;SDS011;18147;51.952;6.146;2024-01-27T12:34:43;26.80;;;9.75;;
31537;SDS011;18147;51.952;6.146;2024-01-27T12:37:13;23.08;;;9.88;;
31537;SDS011;18147;51.952;6.146;2024-01-27T12:39:45;33.22;;;9.30;;
31537;SDS011;18147;51.952;6.146;2024-01-27T12:42:11;27.80;;;9.17;;
31537;SDS011;18147;51.952;6.146;2024-01-27T12:44:37;21.98;;;8.52;;
31537;SDS011;18147;51.952;6.146;2024-01-27T12:47:03;27.85;;;8.13;;
31537;SDS011;18147;51.952;6.146;2024-01-27T12:49:29;27.52;;;9.02;;
31537;SDS011;18147;51.952;6.146;2024-01-27T12:51:55;25.05;;;7.43;;
31537;SDS011;18147;51.952;6.146;2024-01-27T12:54:20;24.27;;;7.18;;
31537;SDS011;18147;51.952;6.146;2024-01-27T12:56:46;29.27;;;8.50;;
31537;SDS011;18147;51.952;6.146;2024-01-27T12:59:11;29.38;;;9.85;;
31537;SDS011;18147;51.952;6.146;2024-01-27T13:01:38;24.40;;;7.82;;
31537;SDS011;18147;51.952;6.146;2024-01-27T13:04:03;30.25;;;7.28;;
31537;SDS011;18147;51.952;6.146;2024-01-27T13:06:29;18.52;;;6.18;;
31537;SDS011;18147;51.952;6.146;2024-01-27T13:08:55;19.13;;;6.97;;
31537;SDS011;18147;51.952;6.146;2024-01-27T13:11:21;14.60;;;5.85;;
31537;SDS011;18147;51.952;6.146;2024-01-27T13:13:46;29.40;;;6.85;;
31537;SDS011;18147;51.952;6.146;2024-01-27T13:16:12;26.70;;;7.22;;
31537;SDS011;18147;51.952;6.146;2024-01-27T13:18:37;17.77;;;6.10;;
31537;SDS011;18147;51.952;6.146;2024-01-27T13:21:03;25.92;;;7.55;;
31537;SDS011;18147;51.952;6.146;2024-01-27T13:23:31;24.23;;;6.85;;
31537;SDS011;18147;51.952;6.146;2024-01-27T13:25:56;23.98;;;6.72;;
31537;SDS011;18147;51.952;6.146;2024-01-27T13:28:22;27.38;;;6.60;;
31537;SDS011;18147;51.952;6.146;2024-01-27T13:30:47;26.42;;;6.45;;
31537;SDS011;18147;51.952;6.146;2024-01-27T13:33:13;25.00;;;7.25;;
31537;SDS011;18147;51.952;6.146;2024-01-27T13:35:39;21.20;;;7.40;;
31537;SDS011;18147;51.952;6.146;2024-01-27T13:38:05;29.48;;;7.20;;
31537;SDS011;18147;51.952;6.146;2024-01-27T13:40:31;23.95;;;6.40;;
31537;SDS011;18147;51.952;6.146;2024-01-27T13:42:56;22.38;;;6.00;;
31537;SDS011;18147;51.952;6.146;2024-01-27T13:45:23;23.98;;;6.55;;
31537;SDS011;18147;51.952;6.146;2024-01-27T13:47:48;18.20;;;6.65;;
31537;SDS011;18147;51.952;6.146;2024-01-27T13:50:14;14.50;;;5.80;;
31537;SDS011;18147;51.952;6.146;2024-01-27T13:52:39;31.95;;;8.77;;
31537;SDS011;18147;51.952;6.146;2024-01-27T13:55:08;32.03;;;7.75;;
31537;SDS011;18147;51.952;6.146;2024-01-27T13:57:33;22.27;;;7.15;;
31537;SDS011;18147;51.952;6.146;2024-01-27T13:59:59;25.60;;;6.32;;
31537;SDS011;18147;51.952;6.146;2024-01-27T14:02:24;19.90;;;5.93;;
31537;SDS011;18147;51.952;6.146;2024-01-27T14:04:50;16.98;;;6.10;;
31537;SDS011;18147;51.952;6.146;2024-01-27T14:07:16;23.10;;;6.30;;
31537;SDS011;18147;51.952;6.146;2024-01-27T14:09:42;18.70;;;6.10;;
31537;SDS011;18147;51.952;6.146;2024-01-27T14:12:09;24.80;;;5.88;;
31537;SDS011;18147;51.952;6.146;2024-01-27T14:14:35;21.35;;;5.15;;
31537;SDS011;18147;51.952;6.146;2024-01-27T14:17:04;19.00;;;5.93;;
31537;SDS011;18147;51.952;6.146;2024-01-27T14:19:29;18.75;;;6.25;;